sensor_id;sensor_type;location;lat;lon;timestamp;temperature;humidity
34644;DHT22;26931;43.498;-1.506;2022-08-14T00:02:17;24.70;89.20
34644;DHT22;26931;43.498;-1.506;2022-08-14T00:04:43;24.60;89.30
34644;DHT22;26931;43.498;-1.506;2022-08-14T00:07:09;24.60;89.50
34644;DHT22;26931;43.498;-1.506;2022-08-14T00:09:35;24.60;89.50
34644;DHT22;26931;43.498;-1.506;2022-08-14T00:12:01;24.60;89.60
34644;DHT22;26931;43.498;-1.506;2022-08-14T00:14:29;24.50;89.60
34644;DHT22;26931;43.498;-1.506;2022-08-14T00:16:55;24.60;89.70
34644;DHT22;26931;43.498;-1.506;2022-08-14T00:19:21;24.50;89.60
34644;DHT22;26931;43.498;-1.506;2022-08-14T00:21:47;24.50;89.80
34644;DHT22;26931;43.498;-1.506;2022-08-14T00:24:13;24.60;90.00
34644;DHT22;26931;43.498;-1.506;2022-08-14T00:26:39;24.50;90.10
34644;DHT22;26931;43.498;-1.506;2022-08-14T00:29:04;24.50;90.10
34644;DHT22;26931;43.498;-1.506;2022-08-14T00:31:30;24.40;90.10
34644;DHT22;26931;43.498;-1.506;2022-08-14T00:33:56;24.50;90.10
34644;DHT22;26931;43.498;-1.506;2022-08-14T00:36:22;24.60;90.10
34644;DHT22;26931;43.498;-1.506;2022-08-14T00:38:48;24.60;90.10
34644;DHT22;26931;43.498;-1.506;2022-08-14T00:41:14;24.60;90.00
34644;DHT22;26931;43.498;-1.506;2022-08-14T00:43:40;24.50;90.00
34644;DHT22;26931;43.498;-1.506;2022-08-14T00:46:07;24.60;90.10
34644;DHT22;26931;43.498;-1.506;2022-08-14T00:48:34;24.70;90.10
34644;DHT22;26931;43.498;-1.506;2022-08-14T00:51:01;24.60;90.20
34644;DHT22;26931;43.498;-1.506;2022-08-14T00:53:27;24.70;90.30
34644;DHT22;26931;43.498;-1.506;2022-08-14T00:55:53;24.70;90.30
34644;DHT22;26931;43.498;-1.506;2022-08-14T00:58:22;24.60;90.30
34644;DHT22;26931;43.498;-1.506;2022-08-14T01:01:05;24.60;90.30
34644;DHT22;26931;43.498;-1.506;2022-08-14T01:03:34;24.70;90.30
34644;DHT22;26931;43.498;-1.506;2022-08-14T01:06:07;24.80;90.20
34644;DHT22;26931;43.498;-1.506;2022-08-14T01:08:35;24.70;90.00
34644;DHT22;26931;43.498;-1.506;2022-08-14T01:11:01;24.70;89.90
34644;DHT22;26931;43.498;-1.506;2022-08-14T01:13:28;24.80;89.70
34644;DHT22;26931;43.498;-1.506;2022-08-14T01:15:57;24.70;89.40
34644;DHT22;26931;43.498;-1.506;2022-08-14T01:18:23;24.70;89.20
34644;DHT22;26931;43.498;-1.506;2022-08-14T01:21:08;24.70;89.00
34644;DHT22;26931;43.498;-1.506;2022-08-14T01:23:41;24.70;88.80
34644;DHT22;26931;43.498;-1.506;2022-08-14T01:26:08;24.70;88.70
34644;DHT22;26931;43.498;-1.506;2022-08-14T01:28:34;24.70;88.60
34644;DHT22;26931;43.498;-1.506;2022-08-14T01:31:05;24.70;88.50
34644;DHT22;26931;43.498;-1.506;2022-08-14T01:33:33;24.70;88.50
34644;DHT22;26931;43.498;-1.506;2022-08-14T01:35:59;24.70;88.50
34644;DHT22;26931;43.498;-1.506;2022-08-14T01:38:28;24.70;88.40
34644;DHT22;26931;43.498;-1.506;2022-08-14T01:41:04;24.70;88.50
34644;DHT22;26931;43.498;-1.506;2022-08-14T01:43:31;24.70;88.40
34644;DHT22;26931;43.498;-1.506;2022-08-14T01:46:03;24.70;88.30
34644;DHT22;26931;43.498;-1.506;2022-08-14T01:48:35;24.80;88.10
34644;DHT22;26931;43.498;-1.506;2022-08-14T01:51:01;24.80;87.90
34644;DHT22;26931;43.498;-1.506;2022-08-14T01:53:27;24.80;87.80
34644;DHT22;26931;43.498;-1.506;2022-08-14T01:55:57;24.90;87.70
34644;DHT22;26931;43.498;-1.506;2022-08-14T01:58:23;24.80;87.50
34644;DHT22;26931;43.498;-1.506;2022-08-14T02:00:53;24.70;87.30
34644;DHT22;26931;43.498;-1.506;2022-08-14T02:03:21;24.80;87.30
34644;DHT22;26931;43.498;-1.506;2022-08-14T02:05:48;24.70;87.10
34644;DHT22;26931;43.498;-1.506;2022-08-14T02:08:14;24.70;87.00
34644;DHT22;26931;43.498;-1.506;2022-08-14T02:10:40;24.70;86.90
34644;DHT22;26931;43.498;-1.506;2022-08-14T02:13:06;24.70;86.70
34644;DHT22;26931;43.498;-1.506;2022-08-14T02:15:32;24.70;86.60
34644;DHT22;26931;43.498;-1.506;2022-08-14T02:17:58;24.60;86.50
34644;DHT22;26931;43.498;-1.506;2022-08-14T02:20:29;24.60;86.60
34644;DHT22;26931;43.498;-1.506;2022-08-14T02:22:58;24.70;86.60
34644;DHT22;26931;43.498;-1.506;2022-08-14T02:25:24;24.70;86.60
34644;DHT22;26931;43.498;-1.506;2022-08-14T02:27:50;24.70;86.50
34644;DHT22;26931;43.498;-1.506;2022-08-14T02:30:22;24.70;86.50
34644;DHT22;26931;43.498;-1.506;2022-08-14T02:32:50;24.70;86.40
34644;DHT22;26931;43.498;-1.506;2022-08-14T02:35:16;24.70;86.30
34644;DHT22;26931;43.498;-1.506;2022-08-14T02:37:47;24.90;86.30
34644;DHT22;26931;43.498;-1.506;2022-08-14T02:40:13;24.90;86.30
34644;DHT22;26931;43.498;-1.506;2022-08-14T02:42:40;24.80;86.10
34644;DHT22;26931;43.498;-1.506;2022-08-14T02:45:06;24.80;86.10
34644;DHT22;26931;43.498;-1.506;2022-08-14T02:47:32;24.80;86.10
34644;DHT22;26931;43.498;-1.506;2022-08-14T02:49:58;24.70;86.10
34644;DHT22;26931;43.498;-1.506;2022-08-14T02:52:24;24.70;86.10
34644;DHT22;26931;43.498;-1.506;2022-08-14T02:54:52;24.70;86.10
34644;DHT22;26931;43.498;-1.506;2022-08-14T02:57:18;24.70;86.20
34644;DHT22;26931;43.498;-1.506;2022-08-14T02:59:46;24.70;86.20
34644;DHT22;26931;43.498;-1.506;2022-08-14T03:02:13;24.70;86.30
34644;DHT22;26931;43.498;-1.506;2022-08-14T03:04:41;24.70;86.30
34644;DHT22;26931;43.498;-1.506;2022-08-14T03:07:07;24.60;86.30
34644;DHT22;26931;43.498;-1.506;2022-08-14T03:09:34;24.70;86.20
34644;DHT22;26931;43.498;-1.506;2022-08-14T03:12:00;24.70;86.20
34644;DHT22;26931;43.498;-1.506;2022-08-14T03:14:29;24.90;86.30
34644;DHT22;26931;43.498;-1.506;2022-08-14T03:16:55;24.70;86.10
34644;DHT22;26931;43.498;-1.506;2022-08-14T03:19:21;24.70;86.10
34644;DHT22;26931;43.498;-1.506;2022-08-14T03:21:47;24.70;86.10
34644;DHT22;26931;43.498;-1.506;2022-08-14T03:24:13;24.70;86.10
34644;DHT22;26931;43.498;-1.506;2022-08-14T03:26:45;24.60;86.10
34644;DHT22;26931;43.498;-1.506;2022-08-14T03:29:12;24.60;86.10
34644;DHT22;26931;43.498;-1.506;2022-08-14T03:31:38;24.60;86.10
34644;DHT22;26931;43.498;-1.506;2022-08-14T03:34:06;24.60;86.10
34644;DHT22;26931;43.498;-1.506;2022-08-14T03:36:35;24.60;86.30
34644;DHT22;26931;43.498;-1.506;2022-08-14T03:39:03;24.60;86.50
34644;DHT22;26931;43.498;-1.506;2022-08-14T03:41:28;24.50;86.60
34644;DHT22;26931;43.498;-1.506;2022-08-14T03:43:56;24.50;86.80
34644;DHT22;26931;43.498;-1.506;2022-08-14T03:46:25;24.50;86.90
34644;DHT22;26931;43.498;-1.506;2022-08-14T03:48:52;24.50;87.20
34644;DHT22;26931;43.498;-1.506;2022-08-14T03:51:19;24.40;87.00
34644;DHT22;26931;43.498;-1.506;2022-08-14T03:53:45;24.60;87.10
34644;DHT22;26931;43.498;-1.506;2022-08-14T03:56:13;24.40;87.00
34644;DHT22;26931;43.498;-1.506;2022-08-14T03:58:40;24.50;87.20
34644;DHT22;26931;43.498;-1.506;2022-08-14T04:01:07;24.50;87.30
34644;DHT22;26931;43.498;-1.506;2022-08-14T04:03:34;24.40;87.20
34644;DHT22;26931;43.498;-1.506;2022-08-14T04:05:59;24.40;87.40
34644;DHT22;26931;43.498;-1.506;2022-08-14T04:08:25;24.30;87.40
34644;DHT22;26931;43.498;-1.506;2022-08-14T04:10:51;24.30;87.60
34644;DHT22;26931;43.498;-1.506;2022-08-14T04:13:17;24.20;87.60
34644;DHT22;26931;43.498;-1.506;2022-08-14T04:15:45;24.30;87.80
34644;DHT22;26931;43.498;-1.506;2022-08-14T04:18:12;24.30;88.20
34644;DHT22;26931;43.498;-1.506;2022-08-14T04:20:38;24.20;88.10
34644;DHT22;26931;43.498;-1.506;2022-08-14T04:23:05;24.20;88.30
34644;DHT22;26931;43.498;-1.506;2022-08-14T04:25:31;24.20;88.60
34644;DHT22;26931;43.498;-1.506;2022-08-14T04:28:04;24.10;88.80
34644;DHT22;26931;43.498;-1.506;2022-08-14T04:30:31;24.10;89.20
34644;DHT22;26931;43.498;-1.506;2022-08-14T04:32:57;24.10;89.40
34644;DHT22;26931;43.498;-1.506;2022-08-14T04:35:23;24.00;89.60
34644;DHT22;26931;43.498;-1.506;2022-08-14T04:37:49;24.00;89.70
34644;DHT22;26931;43.498;-1.506;2022-08-14T04:40:33;23.90;89.70
34644;DHT22;26931;43.498;-1.506;2022-08-14T04:43:17;24.00;90.00
34644;DHT22;26931;43.498;-1.506;2022-08-14T04:46:03;23.90;90.10
34644;DHT22;26931;43.498;-1.506;2022-08-14T04:48:28;24.00;90.20
34644;DHT22;26931;43.498;-1.506;2022-08-14T04:50:54;24.00;90.30
34644;DHT22;26931;43.498;-1.506;2022-08-14T04:53:22;23.90;90.20
34644;DHT22;26931;43.498;-1.506;2022-08-14T04:55:48;23.90;90.20
34644;DHT22;26931;43.498;-1.506;2022-08-14T04:58:15;23.90;90.20
34644;DHT22;26931;43.498;-1.506;2022-08-14T05:00:42;23.90;90.30
34644;DHT22;26931;43.498;-1.506;2022-08-14T05:03:08;23.90;90.40
34644;DHT22;26931;43.498;-1.506;2022-08-14T05:05:34;23.90;90.40
34644;DHT22;26931;43.498;-1.506;2022-08-14T05:08:07;23.90;90.50
34644;DHT22;26931;43.498;-1.506;2022-08-14T05:10:34;23.80;90.60
34644;DHT22;26931;43.498;-1.506;2022-08-14T05:13:00;23.80;90.60
34644;DHT22;26931;43.498;-1.506;2022-08-14T05:15:26;23.90;90.60
34644;DHT22;26931;43.498;-1.506;2022-08-14T05:17:55;23.80;90.60
34644;DHT22;26931;43.498;-1.506;2022-08-14T05:20:20;23.80;90.60
34644;DHT22;26931;43.498;-1.506;2022-08-14T05:22:46;23.80;90.60
34644;DHT22;26931;43.498;-1.506;2022-08-14T05:25:11;23.90;90.60
34644;DHT22;26931;43.498;-1.506;2022-08-14T05:27:37;23.80;90.60
34644;DHT22;26931;43.498;-1.506;2022-08-14T05:30:06;23.80;90.60
34644;DHT22;26931;43.498;-1.506;2022-08-14T05:32:32;23.70;90.80
34644;DHT22;26931;43.498;-1.506;2022-08-14T05:34:58;23.90;90.90
34644;DHT22;26931;43.498;-1.506;2022-08-14T05:37:25;23.80;91.00
34644;DHT22;26931;43.498;-1.506;2022-08-14T05:39:51;23.70;90.90
34644;DHT22;26931;43.498;-1.506;2022-08-14T05:42:17;23.80;90.90
34644;DHT22;26931;43.498;-1.506;2022-08-14T05:44:43;23.90;90.90
34644;DHT22;26931;43.498;-1.506;2022-08-14T05:47:08;23.90;90.80
34644;DHT22;26931;43.498;-1.506;2022-08-14T05:49:35;23.70;90.60
34644;DHT22;26931;43.498;-1.506;2022-08-14T05:52:01;23.90;90.60
34644;DHT22;26931;43.498;-1.506;2022-08-14T05:54:26;23.90;90.40
34644;DHT22;26931;43.498;-1.506;2022-08-14T05:56:52;23.90;90.30
34644;DHT22;26931;43.498;-1.506;2022-08-14T05:59:18;23.90;90.20
34644;DHT22;26931;43.498;-1.506;2022-08-14T06:01:44;23.90;90.10
34644;DHT22;26931;43.498;-1.506;2022-08-14T06:04:09;23.90;90.00
34644;DHT22;26931;43.498;-1.506;2022-08-14T06:06:35;23.90;89.90
34644;DHT22;26931;43.498;-1.506;2022-08-14T06:09:01;23.90;89.80
34644;DHT22;26931;43.498;-1.506;2022-08-14T06:11:27;23.90;89.80
34644;DHT22;26931;43.498;-1.506;2022-08-14T06:13:53;24.10;89.60
34644;DHT22;26931;43.498;-1.506;2022-08-14T06:16:18;24.00;89.40
34644;DHT22;26931;43.498;-1.506;2022-08-14T06:18:45;24.00;89.30
34644;DHT22;26931;43.498;-1.506;2022-08-14T06:21:11;24.00;89.10
34644;DHT22;26931;43.498;-1.506;2022-08-14T06:23:37;24.10;88.90
34644;DHT22;26931;43.498;-1.506;2022-08-14T06:26:02;24.00;88.80
34644;DHT22;26931;43.498;-1.506;2022-08-14T06:28:28;24.10;88.80
34644;DHT22;26931;43.498;-1.506;2022-08-14T06:30:54;24.10;88.70
34644;DHT22;26931;43.498;-1.506;2022-08-14T06:33:20;24.10;88.80
34644;DHT22;26931;43.498;-1.506;2022-08-14T06:35:46;24.10;88.50
34644;DHT22;26931;43.498;-1.506;2022-08-14T06:38:17;24.10;88.50
34644;DHT22;26931;43.498;-1.506;2022-08-14T06:40:43;24.10;88.50
34644;DHT22;26931;43.498;-1.506;2022-08-14T06:43:10;24.10;88.40
34644;DHT22;26931;43.498;-1.506;2022-08-14T06:45:37;24.10;88.30
34644;DHT22;26931;43.498;-1.506;2022-08-14T06:48:03;24.10;88.30
34644;DHT22;26931;43.498;-1.506;2022-08-14T06:50:30;23.90;88.30
34644;DHT22;26931;43.498;-1.506;2022-08-14T06:52:56;24.00;88.40
34644;DHT22;26931;43.498;-1.506;2022-08-14T06:55:22;24.00;88.60
34644;DHT22;26931;43.498;-1.506;2022-08-14T06:57:49;24.00;88.80
34644;DHT22;26931;43.498;-1.506;2022-08-14T07:00:16;24.00;89.00
34644;DHT22;26931;43.498;-1.506;2022-08-14T07:02:42;23.90;89.20
34644;DHT22;26931;43.498;-1.506;2022-08-14T07:05:26;23.90;89.40
34644;DHT22;26931;43.498;-1.506;2022-08-14T07:08:19;24.10;89.60
34644;DHT22;26931;43.498;-1.506;2022-08-14T07:10:46;23.90;89.60
34644;DHT22;26931;43.498;-1.506;2022-08-14T07:13:13;23.90;89.50
34644;DHT22;26931;43.498;-1.506;2022-08-14T07:15:40;23.90;89.50
34644;DHT22;26931;43.498;-1.506;2022-08-14T07:18:07;23.80;89.50
34644;DHT22;26931;43.498;-1.506;2022-08-14T07:20:33;23.80;89.60
34644;DHT22;26931;43.498;-1.506;2022-08-14T07:22:59;23.80;89.50
34644;DHT22;26931;43.498;-1.506;2022-08-14T07:25:25;23.70;89.20
34644;DHT22;26931;43.498;-1.506;2022-08-14T07:27:53;23.80;88.80
34644;DHT22;26931;43.498;-1.506;2022-08-14T07:30:19;23.80;88.50
34644;DHT22;26931;43.498;-1.506;2022-08-14T07:32:44;23.80;88.10
34644;DHT22;26931;43.498;-1.506;2022-08-14T07:35:10;23.80;87.80
34644;DHT22;26931;43.498;-1.506;2022-08-14T07:37:36;23.80;87.50
34644;DHT22;26931;43.498;-1.506;2022-08-14T07:40:02;23.80;87.40
34644;DHT22;26931;43.498;-1.506;2022-08-14T07:42:28;23.90;87.40
34644;DHT22;26931;43.498;-1.506;2022-08-14T07:44:57;23.80;87.00
34644;DHT22;26931;43.498;-1.506;2022-08-14T07:47:22;23.90;86.90
34644;DHT22;26931;43.498;-1.506;2022-08-14T07:49:53;23.90;86.80
34644;DHT22;26931;43.498;-1.506;2022-08-14T07:52:23;23.80;86.80
34644;DHT22;26931;43.498;-1.506;2022-08-14T07:54:49;23.70;87.70
34644;DHT22;26931;43.498;-1.506;2022-08-14T07:57:15;23.80;87.10
34644;DHT22;26931;43.498;-1.506;2022-08-14T07:59:42;23.80;87.30
34644;DHT22;26931;43.498;-1.506;2022-08-14T08:02:12;23.80;87.50
34644;DHT22;26931;43.498;-1.506;2022-08-14T08:04:38;23.80;87.60
34644;DHT22;26931;43.498;-1.506;2022-08-14T08:07:07;23.70;87.60
34644;DHT22;26931;43.498;-1.506;2022-08-14T08:09:33;23.80;87.80
34644;DHT22;26931;43.498;-1.506;2022-08-14T08:12:03;23.80;87.80
34644;DHT22;26931;43.498;-1.506;2022-08-14T08:14:35;23.80;87.80
34644;DHT22;26931;43.498;-1.506;2022-08-14T08:17:01;23.90;87.50
34644;DHT22;26931;43.498;-1.506;2022-08-14T08:19:28;24.00;87.30
34644;DHT22;26931;43.498;-1.506;2022-08-14T08:21:56;24.00;87.10
34644;DHT22;26931;43.498;-1.506;2022-08-14T08:24:22;24.00;87.00
34644;DHT22;26931;43.498;-1.506;2022-08-14T08:26:48;23.90;87.00
34644;DHT22;26931;43.498;-1.506;2022-08-14T08:29:18;24.00;87.00
34644;DHT22;26931;43.498;-1.506;2022-08-14T08:31:48;24.00;87.10
34644;DHT22;26931;43.498;-1.506;2022-08-14T08:34:17;23.90;87.00
34644;DHT22;26931;43.498;-1.506;2022-08-14T08:36:43;24.00;86.80
34644;DHT22;26931;43.498;-1.506;2022-08-14T08:39:09;24.00;86.80
34644;DHT22;26931;43.498;-1.506;2022-08-14T08:41:45;24.00;86.60
34644;DHT22;26931;43.498;-1.506;2022-08-14T08:44:12;24.00;86.50
34644;DHT22;26931;43.498;-1.506;2022-08-14T08:46:38;24.20;86.20
34644;DHT22;26931;43.498;-1.506;2022-08-14T08:49:04;24.20;86.20
34644;DHT22;26931;43.498;-1.506;2022-08-14T08:51:31;24.20;85.20
34644;DHT22;26931;43.498;-1.506;2022-08-14T08:54:04;24.20;85.00
34644;DHT22;26931;43.498;-1.506;2022-08-14T08:59:00;24.20;84.90
34644;DHT22;26931;43.498;-1.506;2022-08-14T09:01:29;24.10;84.60
34644;DHT22;26931;43.498;-1.506;2022-08-14T09:04:04;24.20;84.60
34644;DHT22;26931;43.498;-1.506;2022-08-14T09:06:30;24.30;84.50
34644;DHT22;26931;43.498;-1.506;2022-08-14T09:08:56;24.30;84.50
34644;DHT22;26931;43.498;-1.506;2022-08-14T09:11:22;24.10;84.60
34644;DHT22;26931;43.498;-1.506;2022-08-14T09:13:49;24.10;84.80
34644;DHT22;26931;43.498;-1.506;2022-08-14T09:16:19;24.20;84.80
34644;DHT22;26931;43.498;-1.506;2022-08-14T09:18:45;24.20;84.90
34644;DHT22;26931;43.498;-1.506;2022-08-14T09:21:11;24.30;84.90
34644;DHT22;26931;43.498;-1.506;2022-08-14T09:23:37;24.50;84.50
34644;DHT22;26931;43.498;-1.506;2022-08-14T09:26:05;24.70;84.10
34644;DHT22;26931;43.498;-1.506;2022-08-14T09:28:31;24.90;83.70
34644;DHT22;26931;43.498;-1.506;2022-08-14T09:30:56;25.00;83.20
34644;DHT22;26931;43.498;-1.506;2022-08-14T09:41:22;25.30;81.90
34644;DHT22;26931;43.498;-1.506;2022-08-14T09:44:01;25.40;81.70
34644;DHT22;26931;43.498;-1.506;2022-08-14T09:46:29;25.50;81.30
34644;DHT22;26931;43.498;-1.506;2022-08-14T09:49:03;25.60;81.00
34644;DHT22;26931;43.498;-1.506;2022-08-14T09:51:29;25.40;81.10
34644;DHT22;26931;43.498;-1.506;2022-08-14T09:54:00;25.40;81.50
34644;DHT22;26931;43.498;-1.506;2022-08-14T09:56:26;25.10;81.40
34644;DHT22;26931;43.498;-1.506;2022-08-14T09:58:51;25.10;81.60
34644;DHT22;26931;43.498;-1.506;2022-08-14T10:01:18;25.10;81.60
34644;DHT22;26931;43.498;-1.506;2022-08-14T10:03:48;25.10;81.70
34644;DHT22;26931;43.498;-1.506;2022-08-14T10:06:15;25.10;81.70
34644;DHT22;26931;43.498;-1.506;2022-08-14T10:08:46;25.10;81.50
34644;DHT22;26931;43.498;-1.506;2022-08-14T10:11:14;25.20;81.50
34644;DHT22;26931;43.498;-1.506;2022-08-14T10:13:42;25.40;81.50
34644;DHT22;26931;43.498;-1.506;2022-08-14T10:16:07;25.30;81.30
34644;DHT22;26931;43.498;-1.506;2022-08-14T10:18:33;25.30;81.10
34644;DHT22;26931;43.498;-1.506;2022-08-14T10:20:59;25.50;81.10
34644;DHT22;26931;43.498;-1.506;2022-08-14T10:23:27;25.40;81.00
34644;DHT22;26931;43.498;-1.506;2022-08-14T10:25:57;25.50;80.80
34644;DHT22;26931;43.498;-1.506;2022-08-14T10:28:37;25.50;80.70
34644;DHT22;26931;43.498;-1.506;2022-08-14T10:31:03;25.50;80.60
34644;DHT22;26931;43.498;-1.506;2022-08-14T10:33:30;25.60;80.50
34644;DHT22;26931;43.498;-1.506;2022-08-14T10:35:57;25.50;80.40
34644;DHT22;26931;43.498;-1.506;2022-08-14T10:38:28;25.50;80.20
34644;DHT22;26931;43.498;-1.506;2022-08-14T10:40:56;25.60;80.00
34644;DHT22;26931;43.498;-1.506;2022-08-14T10:43:34;25.50;79.70
34644;DHT22;26931;43.498;-1.506;2022-08-14T10:46:00;25.50;79.30
34644;DHT22;26931;43.498;-1.506;2022-08-14T10:48:26;25.60;79.20
34644;DHT22;26931;43.498;-1.506;2022-08-14T10:50:52;25.60;79.00
34644;DHT22;26931;43.498;-1.506;2022-08-14T10:53:32;25.60;78.70
34644;DHT22;26931;43.498;-1.506;2022-08-14T10:55:59;25.70;78.70
34644;DHT22;26931;43.498;-1.506;2022-08-14T10:58:29;25.70;78.50
34644;DHT22;26931;43.498;-1.506;2022-08-14T11:00:58;25.80;78.30
34644;DHT22;26931;43.498;-1.506;2022-08-14T11:03:35;25.90;78.10
34644;DHT22;26931;43.498;-1.506;2022-08-14T11:06:09;25.80;77.80
34644;DHT22;26931;43.498;-1.506;2022-08-14T11:08:38;26.20;77.90
34644;DHT22;26931;43.498;-1.506;2022-08-14T11:11:04;26.10;77.40
34644;DHT22;26931;43.498;-1.506;2022-08-14T11:13:31;26.20;77.20
34644;DHT22;26931;43.498;-1.506;2022-08-14T11:15:58;26.20;77.00
34644;DHT22;26931;43.498;-1.506;2022-08-14T11:18:27;26.30;76.80
34644;DHT22;26931;43.498;-1.506;2022-08-14T11:20:55;26.30;76.60
34644;DHT22;26931;43.498;-1.506;2022-08-14T11:23:31;26.30;76.60
34644;DHT22;26931;43.498;-1.506;2022-08-14T11:25:58;26.30;76.70
34644;DHT22;26931;43.498;-1.506;2022-08-14T11:28:26;26.30;76.80
34644;DHT22;26931;43.498;-1.506;2022-08-14T11:30:52;26.30;76.80
34644;DHT22;26931;43.498;-1.506;2022-08-14T11:33:24;26.40;77.00
34644;DHT22;26931;43.498;-1.506;2022-08-14T11:35:50;26.40;77.00
34644;DHT22;26931;43.498;-1.506;2022-08-14T11:38:16;26.40;76.90
34644;DHT22;26931;43.498;-1.506;2022-08-14T11:40:44;26.40;76.80
34644;DHT22;26931;43.498;-1.506;2022-08-14T11:43:11;26.40;76.80
34644;DHT22;26931;43.498;-1.506;2022-08-14T11:45:37;26.30;76.80
34644;DHT22;26931;43.498;-1.506;2022-08-14T11:48:16;26.40;76.90
34644;DHT22;26931;43.498;-1.506;2022-08-14T11:50:43;26.30;76.80
34644;DHT22;26931;43.498;-1.506;2022-08-14T11:55:53;26.10;76.90
34644;DHT22;26931;43.498;-1.506;2022-08-14T11:58:23;26.10;76.90
34644;DHT22;26931;43.498;-1.506;2022-08-14T12:00:50;26.10;76.80
34644;DHT22;26931;43.498;-1.506;2022-08-14T12:03:17;26.10;76.60
34644;DHT22;26931;43.498;-1.506;2022-08-14T12:05:43;26.00;76.30
34644;DHT22;26931;43.498;-1.506;2022-08-14T12:08:10;26.10;76.30
34644;DHT22;26931;43.498;-1.506;2022-08-14T12:10:37;26.10;76.20
34644;DHT22;26931;43.498;-1.506;2022-08-14T12:13:16;26.10;76.20
34644;DHT22;26931;43.498;-1.506;2022-08-14T12:15:44;26.10;76.10
34644;DHT22;26931;43.498;-1.506;2022-08-14T12:18:10;26.10;76.20
34644;DHT22;26931;43.498;-1.506;2022-08-14T12:20:37;26.10;76.20
34644;DHT22;26931;43.498;-1.506;2022-08-14T12:23:04;26.10;76.20
34644;DHT22;26931;43.498;-1.506;2022-08-14T12:25:31;26.20;76.40
34644;DHT22;26931;43.498;-1.506;2022-08-14T12:27:57;26.10;76.50
34644;DHT22;26931;43.498;-1.506;2022-08-14T12:30:26;26.00;76.40
34644;DHT22;26931;43.498;-1.506;2022-08-14T12:32:53;26.00;76.60
34644;DHT22;26931;43.498;-1.506;2022-08-14T12:35:20;26.00;76.70
34644;DHT22;26931;43.498;-1.506;2022-08-14T12:37:50;26.00;76.80
34644;DHT22;26931;43.498;-1.506;2022-08-14T12:40:17;26.00;76.80
34644;DHT22;26931;43.498;-1.506;2022-08-14T12:42:43;26.10;76.90
34644;DHT22;26931;43.498;-1.506;2022-08-14T12:45:10;26.10;76.90
34644;DHT22;26931;43.498;-1.506;2022-08-14T12:47:41;26.20;77.00
34644;DHT22;26931;43.498;-1.506;2022-08-14T12:50:07;25.90;76.80
34644;DHT22;26931;43.498;-1.506;2022-08-14T12:52:40;25.90;76.90
34644;DHT22;26931;43.498;-1.506;2022-08-14T12:55:07;26.00;77.00
34644;DHT22;26931;43.498;-1.506;2022-08-14T12:57:36;26.00;76.90
34644;DHT22;26931;43.498;-1.506;2022-08-14T13:00:08;26.00;76.80
34644;DHT22;26931;43.498;-1.506;2022-08-14T13:02:36;26.00;76.80
34644;DHT22;26931;43.498;-1.506;2022-08-14T13:05:02;26.00;76.80
34644;DHT22;26931;43.498;-1.506;2022-08-14T13:07:28;26.00;76.80
34644;DHT22;26931;43.498;-1.506;2022-08-14T13:09:55;26.00;76.80
34644;DHT22;26931;43.498;-1.506;2022-08-14T13:12:22;26.00;76.90
34644;DHT22;26931;43.498;-1.506;2022-08-14T13:14:51;26.00;76.90
34644;DHT22;26931;43.498;-1.506;2022-08-14T13:17:19;26.10;77.10
34644;DHT22;26931;43.498;-1.506;2022-08-14T13:19:48;26.00;77.10
34644;DHT22;26931;43.498;-1.506;2022-08-14T13:22:16;26.00;77.00
34644;DHT22;26931;43.498;-1.506;2022-08-14T13:24:43;25.90;76.80
34644;DHT22;26931;43.498;-1.506;2022-08-14T13:27:09;25.90;76.70
34644;DHT22;26931;43.498;-1.506;2022-08-14T13:29:38;25.90;76.70
34644;DHT22;26931;43.498;-1.506;2022-08-14T13:32:05;25.90;77.40
34644;DHT22;26931;43.498;-1.506;2022-08-14T13:34:33;25.90;76.50
34644;DHT22;26931;43.498;-1.506;2022-08-14T13:36:59;25.90;76.40
34644;DHT22;26931;43.498;-1.506;2022-08-14T13:39:26;25.90;76.40
34644;DHT22;26931;43.498;-1.506;2022-08-14T13:41:53;25.90;76.30
34644;DHT22;26931;43.498;-1.506;2022-08-14T13:44:19;25.90;76.40
34644;DHT22;26931;43.498;-1.506;2022-08-14T13:46:47;25.80;76.30
34644;DHT22;26931;43.498;-1.506;2022-08-14T13:49:14;25.90;76.50
34644;DHT22;26931;43.498;-1.506;2022-08-14T13:51:41;25.90;76.50
34644;DHT22;26931;43.498;-1.506;2022-08-14T13:54:15;25.90;76.50
34644;DHT22;26931;43.498;-1.506;2022-08-14T13:56:42;26.00;76.60
34644;DHT22;26931;43.498;-1.506;2022-08-14T13:59:08;26.00;76.60
34644;DHT22;26931;43.498;-1.506;2022-08-14T14:01:35;25.90;76.50
34644;DHT22;26931;43.498;-1.506;2022-08-14T14:04:04;25.90;76.30
34644;DHT22;26931;43.498;-1.506;2022-08-14T14:06:31;25.90;76.20
34644;DHT22;26931;43.498;-1.506;2022-08-14T14:08:58;25.90;76.00
34644;DHT22;26931;43.498;-1.506;2022-08-14T14:11:26;25.90;75.70
34644;DHT22;26931;43.498;-1.506;2022-08-14T14:13:53;25.90;75.60
34644;DHT22;26931;43.498;-1.506;2022-08-14T14:16:19;25.90;75.40
34644;DHT22;26931;43.498;-1.506;2022-08-14T14:18:46;25.90;75.20
34644;DHT22;26931;43.498;-1.506;2022-08-14T14:21:16;25.90;75.00
34644;DHT22;26931;43.498;-1.506;2022-08-14T14:23:43;26.00;75.00
34644;DHT22;26931;43.498;-1.506;2022-08-14T14:26:11;25.90;74.80
34644;DHT22;26931;43.498;-1.506;2022-08-14T14:28:37;26.00;74.90
34644;DHT22;26931;43.498;-1.506;2022-08-14T14:31:05;25.80;74.80
34644;DHT22;26931;43.498;-1.506;2022-08-14T14:33:32;25.80;74.80
34644;DHT22;26931;43.498;-1.506;2022-08-14T14:35:58;25.80;74.70
34644;DHT22;26931;43.498;-1.506;2022-08-14T14:38:26;25.80;74.80
34644;DHT22;26931;43.498;-1.506;2022-08-14T14:40:53;25.80;74.70
34644;DHT22;26931;43.498;-1.506;2022-08-14T14:43:20;25.80;74.70
34644;DHT22;26931;43.498;-1.506;2022-08-14T14:45:49;25.70;74.60
34644;DHT22;26931;43.498;-1.506;2022-08-14T14:48:15;25.70;74.70
34644;DHT22;26931;43.498;-1.506;2022-08-14T14:50:42;25.70;74.70
34644;DHT22;26931;43.498;-1.506;2022-08-14T14:53:07;25.70;74.80
34644;DHT22;26931;43.498;-1.506;2022-08-14T14:55:36;25.70;74.90
34644;DHT22;26931;43.498;-1.506;2022-08-14T14:58:02;25.70;74.90
34644;DHT22;26931;43.498;-1.506;2022-08-14T15:00:28;25.70;74.70
34644;DHT22;26931;43.498;-1.506;2022-08-14T15:02:53;25.70;74.90
34644;DHT22;26931;43.498;-1.506;2022-08-14T15:05:21;25.60;74.70
34644;DHT22;26931;43.498;-1.506;2022-08-14T15:07:48;25.80;74.80
34644;DHT22;26931;43.498;-1.506;2022-08-14T15:10:15;25.50;74.40
34644;DHT22;26931;43.498;-1.506;2022-08-14T15:12:41;25.60;74.60
34644;DHT22;26931;43.498;-1.506;2022-08-14T15:15:08;25.60;74.40
34644;DHT22;26931;43.498;-1.506;2022-08-14T15:17:35;25.60;74.40
34644;DHT22;26931;43.498;-1.506;2022-08-14T15:20:03;25.70;74.50
34644;DHT22;26931;43.498;-1.506;2022-08-14T15:22:30;25.70;74.50
34644;DHT22;26931;43.498;-1.506;2022-08-14T15:24:56;25.70;74.40
34644;DHT22;26931;43.498;-1.506;2022-08-14T15:27:22;25.70;74.40
34644;DHT22;26931;43.498;-1.506;2022-08-14T15:29:48;25.70;74.30
34644;DHT22;26931;43.498;-1.506;2022-08-14T15:32:14;25.70;74.30